Accueil
METAR-TAF:

METAR-TAF

Aéroports :

Hanover County Municipal Airport

Richmond / Ashland, Virginie, États-Unis

latitude: 37-42-29N, longitude: 077-26-04W, altitude: 62 m

Observation

Le bulletin a été fait il y a 17 minutes, à 19:54 UTC
Vent 5 kt de sud-ouest
Température 11°C
Humidité 37%
Pression 1020 hPa
Visibilité: 16.1 km
Quelques nuages à une hauteur de 11000 ft

METAR: KOFP 161954Z AUTO 23005KT 10SM FEW110 11/M03 A3013 RMK AO2 SLP205 T01061028

Heure: 15:11 (20:11 UTC)


TAF: absent

Observations et prévisions météorologiques de plus de 4000 aéroports (messages METAR et TAF).

Les stations disponibles sont représentées par des disques jaunes et rouges sur la carte.

Passer la souris dessus pour voir le nom de la station.

Cliquer dessus pour voir les observations et prévisions météorologiques.

Pour changer de carte: cliquez sur les boutons verts avec une croix noire pour zoomer, sur le bouton vert avec un tiret pour effectuer un zoom arrière, ou sur les flèches vertes pour les cartes adjacentes.


METAR-TAF: